Terminal Aerodrome Forecast
Issued by NWS

Home | Current Version | Previous Version | Text Only | Print | Product List | Glossary On
Versions: 1 2 3 4 5 6 7 8 9 10 11 12 13
000
FTUS46 KMTR 021739
TAFSJC
TAF
KSJC 021739Z 0218/0318 32006KT P6SM FEW020
     FM022000 31014KT P6SM SCT200
     FM030300 30009KT P6SM SCT200
     FM030800 32005KT P6SM SCT018
     FM031000 VRB03KT P6SM BKN017
     FM031700 VRB03KT P6SM SCT020=

USA.gov is the U.S. government's official web portal to all federal, state and local government web resources and services.